JIR weather

Jiri Airport
Jiri, Janakpur, Nepal

Public forecast

Using degrees Celsius for public forecast. Weather courtesy of forecast.io.

Closest aviation weather report (METAR) to Jiri Airport

Closest report is Tribhuvan International Airport, 46.5 nm (86.2 km) W. Retrieved 2020/08/06 00:50 UTC (13 minutes ago):

VNKT 060050Z VRB02KT 9999 FEW010 SCT030 BKN100 23/22 Q1010 NOSIG

Closest aviation forecast (TAF) to Jiri Airport

Closest forecast is Tribhuvan International Airport, 46.5 nm (86.2 km) W. Retrieved 2020-08-06 00:51 UTC (12 minutes ago):

TAF TAF VNKT 052300Z 0600/0624 VRB02KT 8000 FEW010 SCT030 BKN100 BECMG 0607/0608 25006KT FEW015 SCT030 BKN100 PROB40 0606/0612 5000 -RA/-TSRA FEW025CB BECMG 0613/0614 22004KT 7000 FEW015 SCT030 BKN100